createdAt,value
2018-06-20T00:00:11.669Z,8.20
2018-06-20T00:02:40.451Z,8.37
2018-06-20T00:05:09.067Z,8.07
2018-06-20T00:07:37.914Z,7.90
2018-06-20T00:10:06.620Z,8.40
2018-06-20T00:12:35.428Z,7.87
2018-06-20T00:15:04.067Z,7.80
2018-06-20T00:17:32.802Z,7.87
2018-06-20T00:20:01.491Z,8.00
2018-06-20T00:22:30.194Z,8.03
2018-06-20T00:24:58.931Z,7.97
2018-06-20T00:27:27.547Z,8.10
2018-06-20T00:29:56.260Z,8.63
2018-06-20T00:32:24.932Z,8.70
2018-06-20T00:34:53.601Z,8.90
2018-06-20T00:37:22.315Z,9.03
2018-06-20T00:39:51.050Z,9.17
2018-06-20T00:42:19.707Z,8.77
2018-06-20T00:44:48.334Z,8.57
2018-06-20T00:47:17.020Z,8.50
2018-06-20T00:49:45.691Z,8.73
2018-06-20T00:52:14.386Z,8.50
2018-06-20T00:54:43.113Z,9.30
2018-06-20T00:57:11.824Z,9.40
2018-06-20T00:59:40.498Z,9.40
2018-06-20T01:02:09.232Z,9.00
2018-06-20T01:04:37.911Z,9.63
2018-06-20T01:07:06.594Z,9.13
2018-06-20T01:09:35.299Z,10.30
2018-06-20T01:12:04.005Z,10.00
2018-06-20T01:14:37.463Z,9.70
2018-06-20T01:17:06.562Z,10.40
2018-06-20T01:19:35.375Z,9.70
2018-06-20T01:22:04.638Z,9.90
2018-06-20T01:24:33.302Z,9.07
2018-06-20T01:27:02.006Z,9.90
2018-06-20T01:29:30.738Z,10.20
2018-06-20T01:31:59.547Z,10.60
2018-06-20T01:34:28.273Z,11.10
2018-06-20T01:36:56.994Z,11.37
2018-06-20T01:39:25.649Z,10.87
2018-06-20T01:41:54.355Z,10.20
2018-06-20T01:44:23.056Z,12.07
2018-06-20T01:46:51.740Z,11.03
2018-06-20T01:49:20.462Z,10.37
2018-06-20T01:51:49.253Z,11.30
2018-06-20T01:54:17.886Z,11.33
2018-06-20T01:56:46.556Z,9.80
2018-06-20T01:59:15.390Z,10.50
2018-06-20T02:01:44.038Z,10.40
2018-06-20T02:04:12.738Z,11.70
2018-06-20T02:06:41.403Z,10.90
2018-06-20T02:09:10.154Z,10.77
2018-06-20T02:11:38.931Z,11.90
2018-06-20T02:14:07.638Z,10.70
2018-06-20T02:16:36.312Z,11.50
2018-06-20T02:19:04.962Z,11.07
2018-06-20T02:21:33.665Z,11.40
2018-06-20T02:24:02.410Z,12.20
2018-06-20T02:26:31.084Z,11.20
2018-06-20T02:28:59.991Z,11.13
2018-06-20T02:31:28.677Z,11.60
2018-06-20T02:33:57.356Z,11.70
2018-06-20T02:36:32.014Z,12.40
2018-06-20T02:39:02.138Z,11.40
2018-06-20T02:41:31.000Z,11.63
2018-06-20T02:43:59.679Z,11.47
2018-06-20T02:46:28.402Z,11.13
2018-06-20T02:48:57.112Z,13.00
2018-06-20T02:51:25.811Z,12.23
2018-06-20T02:53:54.505Z,12.03
2018-06-20T02:56:23.302Z,11.03
2018-06-20T02:58:52.022Z,10.90
2018-06-20T03:01:40.488Z,12.80
2018-06-20T03:04:09.166Z,10.90
2018-06-20T03:06:37.952Z,10.37
2018-06-20T03:09:13.956Z,10.73
2018-06-20T03:11:43.779Z,11.80
2018-06-20T03:14:12.488Z,11.87
2018-06-20T03:16:41.171Z,11.17
2018-06-20T03:19:09.884Z,10.27
2018-06-20T03:21:38.757Z,11.80
2018-06-20T03:24:07.545Z,11.67
2018-06-20T03:26:36.315Z,10.70
2018-06-20T03:29:05.018Z,11.20
2018-06-20T03:31:33.744Z,10.87
2018-06-20T03:34:02.434Z,11.70
2018-06-20T03:36:31.147Z,11.50
2018-06-20T03:38:59.843Z,12.10
2018-06-20T03:41:28.513Z,11.50
2018-06-20T03:43:57.211Z,10.33
2018-06-20T03:46:25.960Z,11.23
2018-06-20T03:48:54.736Z,12.13
2018-06-20T03:51:23.436Z,11.20
2018-06-20T03:53:52.455Z,11.20
2018-06-20T03:56:21.175Z,10.50
2018-06-20T03:58:49.923Z,11.13
2018-06-20T04:01:18.680Z,10.43
2018-06-20T04:03:47.415Z,9.93
2018-06-20T04:06:16.106Z,11.60
2018-06-20T04:08:44.851Z,10.60
2018-06-20T04:11:13.578Z,10.80
2018-06-20T04:13:42.333Z,11.03
2018-06-20T04:16:11.238Z,9.83
2018-06-20T04:18:42.123Z,11.00
2018-06-20T04:21:13.031Z,9.43
2018-06-20T04:23:41.770Z,8.07
2018-06-20T04:26:11.469Z,8.47
2018-06-20T04:28:40.278Z,10.50
2018-06-20T04:31:09.843Z,11.30
2018-06-20T04:33:39.242Z,11.50
2018-06-20T04:36:07.943Z,11.63
2018-06-20T04:38:36.564Z,10.97
2018-06-20T04:41:05.271Z,10.67
2018-06-20T04:43:33.575Z,11.50
2018-06-20T04:46:02.328Z,10.50
2018-06-20T04:48:30.933Z,9.20
2018-06-20T04:50:59.652Z,8.60
2018-06-20T04:53:28.355Z,7.63
2018-06-20T04:55:57.137Z,7.53
2018-06-20T04:58:25.862Z,7.60
2018-06-20T05:00:54.641Z,7.70
2018-06-20T05:03:23.338Z,7.67
2018-06-20T05:05:51.997Z,8.07
2018-06-20T05:08:20.743Z,8.70
2018-06-20T05:10:49.555Z,8.40
2018-06-20T05:13:18.305Z,8.97
2018-06-20T05:15:46.984Z,8.67
2018-06-20T05:18:15.655Z,8.20
2018-06-20T05:20:44.446Z,9.07
2018-06-20T05:23:13.223Z,9.70
2018-06-20T05:25:42.078Z,9.00
2018-06-20T05:28:10.889Z,9.43
2018-06-20T05:30:39.630Z,10.70
2018-06-20T05:33:08.322Z,10.30
2018-06-20T05:35:36.988Z,9.80
2018-06-20T05:38:05.732Z,10.23
2018-06-20T05:40:34.560Z,9.77
2018-06-20T05:43:03.328Z,10.17
2018-06-20T05:45:32.013Z,10.07
2018-06-20T05:48:00.705Z,9.80
2018-06-20T05:50:29.455Z,9.57
2018-06-20T05:52:58.132Z,9.93
2018-06-20T05:55:26.875Z,9.87
2018-06-20T05:57:55.589Z,10.27
2018-06-20T06:00:24.319Z,9.90
2018-06-20T06:02:53.009Z,10.27
2018-06-20T06:05:21.763Z,9.30
2018-06-20T06:07:50.446Z,8.30
2018-06-20T06:10:19.440Z,9.93
2018-06-20T06:12:48.585Z,9.63
2018-06-20T06:15:17.303Z,10.37
2018-06-20T06:17:46.033Z,9.43
2018-06-20T06:20:14.686Z,10.70
2018-06-20T06:22:43.487Z,9.20
2018-06-20T06:25:12.243Z,9.03
2018-06-20T06:27:40.863Z,8.87
2018-06-20T06:30:09.654Z,9.80
2018-06-20T06:32:38.368Z,8.30
2018-06-20T06:35:07.057Z,8.70
2018-06-20T06:37:35.900Z,9.30
2018-06-20T06:40:04.633Z,8.57
2018-06-20T06:42:33.344Z,8.93
2018-06-20T06:45:02.060Z,8.17
2018-06-20T06:47:31.403Z,7.50
2018-06-20T06:50:00.154Z,7.13
2018-06-20T06:52:28.804Z,7.63
2018-06-20T06:54:57.554Z,7.50
2018-06-20T06:57:26.319Z,8.10
2018-06-20T06:59:54.975Z,7.80
2018-06-20T07:02:23.701Z,6.87
2018-06-20T07:04:52.532Z,7.20
2018-06-20T07:07:21.265Z,6.20
2018-06-20T07:09:50.236Z,6.43
2018-06-20T07:12:19.014Z,6.73
2018-06-20T07:14:47.735Z,7.33
2018-06-20T07:17:16.311Z,6.97
2018-06-20T07:19:45.035Z,7.00
2018-06-20T07:22:13.778Z,7.63
2018-06-20T07:24:42.478Z,7.93
2018-06-20T07:27:11.183Z,7.20
2018-06-20T07:29:39.875Z,6.63
2018-06-20T07:32:08.653Z,5.93
2018-06-20T07:34:37.382Z,6.20
2018-06-20T07:37:06.135Z,5.87
2018-06-20T07:39:34.836Z,5.40
2018-06-20T07:42:03.656Z,5.30
2018-06-20T07:44:32.613Z,5.17
2018-06-20T07:47:01.836Z,5.70
2018-06-20T07:49:30.639Z,4.43
2018-06-20T07:51:59.361Z,4.57
2018-06-20T07:54:28.247Z,4.83
2018-06-20T07:56:56.947Z,4.20
2018-06-20T07:59:25.726Z,4.20
2018-06-20T08:02:10.893Z,4.60
2018-06-20T08:04:44.805Z,5.10
2018-06-20T08:07:18.755Z,4.13
2018-06-20T08:12:57.830Z,3.87
2018-06-20T08:15:31.712Z,3.90
2018-06-20T08:18:05.691Z,3.90
2018-06-20T08:20:34.346Z,3.30
2018-06-20T08:23:03.071Z,3.33
2018-06-20T08:25:31.758Z,3.80
2018-06-20T08:28:00.431Z,2.93
2018-06-20T08:30:29.086Z,3.03
2018-06-20T08:32:57.780Z,3.23
2018-06-20T08:35:26.390Z,3.43
2018-06-20T08:37:54.985Z,3.30
2018-06-20T08:40:23.551Z,2.97
2018-06-20T08:42:51.835Z,3.17
2018-06-20T08:45:20.465Z,3.00
2018-06-20T08:47:49.056Z,2.47
2018-06-20T08:50:17.797Z,2.70
2018-06-20T08:52:46.494Z,2.50
2018-06-20T08:55:15.293Z,2.33
2018-06-20T08:57:43.946Z,2.03
2018-06-20T09:00:12.563Z,2.40
2018-06-20T09:02:41.234Z,2.00
2018-06-20T09:05:15.026Z,1.90
2018-06-20T09:07:48.915Z,2.00
2018-06-20T09:10:22.996Z,2.20
2018-06-20T09:12:56.917Z,2.00
2018-06-20T09:15:30.795Z,2.03
2018-06-20T09:18:04.791Z,1.93
2018-06-20T09:20:33.464Z,1.90
2018-06-20T09:23:02.076Z,2.00
2018-06-20T09:25:30.714Z,1.90
2018-06-20T09:27:59.310Z,2.00
2018-06-20T09:30:27.899Z,1.90
2018-06-20T09:32:56.615Z,1.87
2018-06-20T09:35:25.219Z,1.80
2018-06-20T09:37:53.816Z,1.90
2018-06-20T09:40:22.441Z,1.97
2018-06-20T09:42:51.122Z,2.00
2018-06-20T09:45:19.710Z,1.70
2018-06-20T09:47:48.321Z,1.47
2018-06-20T09:50:22.191Z,1.63
2018-06-20T09:52:50.986Z,1.83
2018-06-20T09:55:19.543Z,1.73
2018-06-20T09:57:48.214Z,1.73
2018-06-20T10:00:21.991Z,1.80
2018-06-20T10:03:55.526Z,1.70
2018-06-20T10:06:29.279Z,1.43
2018-06-20T10:09:03.087Z,1.57
2018-06-20T10:11:37.001Z,1.67
2018-06-20T10:14:09.763Z,1.80
2018-06-20T10:16:38.345Z,1.80
2018-06-20T10:19:06.941Z,2.00
2018-06-20T10:21:35.521Z,1.97
2018-06-20T10:24:04.124Z,1.63
2018-06-20T10:26:32.768Z,1.70
2018-06-20T10:29:01.385Z,2.10
2018-06-20T10:31:29.963Z,1.73
2018-06-20T10:33:58.531Z,1.70
2018-06-20T10:36:27.130Z,1.83
2018-06-20T10:38:55.719Z,1.60
2018-06-20T10:41:24.364Z,2.00
2018-06-20T10:43:52.971Z,1.80
2018-06-20T10:46:26.738Z,1.80
2018-06-20T10:48:55.600Z,1.77
2018-06-20T10:51:24.299Z,2.00
2018-06-20T10:53:53.023Z,1.90
2018-06-20T10:56:26.840Z,2.23
2018-06-20T11:01:05.770Z,1.67
2018-06-20T11:03:39.555Z,1.83
2018-06-20T11:06:13.488Z,2.00
2018-06-20T11:08:47.228Z,1.73
2018-06-20T11:11:21.126Z,1.80
2018-06-20T11:13:49.731Z,2.00
2018-06-20T11:16:18.287Z,1.80
2018-06-20T11:18:50.859Z,1.87
2018-06-20T11:21:19.449Z,1.53
2018-06-20T11:23:48.054Z,1.90
2018-06-20T11:26:16.691Z,1.80
2018-06-20T11:28:45.305Z,1.80
2018-06-20T11:31:13.980Z,1.87
2018-06-20T11:33:42.637Z,1.90
2018-06-20T11:36:11.202Z,1.70
2018-06-20T11:38:39.855Z,2.00
2018-06-20T11:41:08.472Z,2.00
2018-06-20T11:43:37.070Z,2.10
2018-06-20T11:46:10.813Z,2.23
2018-06-20T11:48:39.392Z,2.30
2018-06-20T11:51:08.784Z,2.20
2018-06-20T11:53:37.343Z,2.13
2018-06-20T11:56:05.969Z,2.20
2018-06-20T11:58:39.958Z,2.07
2018-06-20T12:01:13.917Z,1.80
2018-06-20T12:03:47.722Z,2.03
2018-06-20T12:06:21.705Z,2.20
2018-06-20T12:08:55.753Z,1.77
2018-06-20T12:11:29.628Z,2.10
2018-06-20T12:14:03.473Z,1.90
2018-06-20T12:16:32.192Z,2.27
2018-06-20T12:19:06.807Z,1.90
2018-06-20T12:21:40.567Z,1.87
2018-06-20T12:24:14.355Z,1.77
2018-06-20T12:26:48.228Z,2.17
2018-06-20T12:29:22.207Z,2.27
2018-06-20T12:31:56.069Z,1.87
2018-06-20T12:34:30.014Z,2.00
2018-06-20T12:37:03.781Z,1.93
2018-06-20T12:39:31.575Z,1.93
2018-06-20T12:42:05.530Z,2.13
2018-06-20T12:44:39.338Z,2.13
2018-06-20T12:47:17.794Z,2.00
2018-06-20T12:49:50.608Z,1.80
2018-06-20T12:52:19.218Z,1.90
2018-06-20T12:54:47.805Z,2.10
2018-06-20T12:57:16.403Z,1.93
2018-06-20T12:59:45.100Z,1.87
2018-06-20T13:02:13.719Z,2.03
2018-06-20T13:04:42.297Z,2.10
2018-06-20T13:07:10.875Z,1.80
2018-06-20T13:09:39.540Z,1.80
2018-06-20T13:12:08.171Z,2.17
2018-06-20T13:14:36.811Z,2.07
2018-06-20T13:17:05.494Z,1.73
2018-06-20T13:19:34.062Z,2.13
2018-06-20T13:22:02.667Z,2.07
2018-06-20T13:24:31.229Z,2.10
2018-06-20T13:26:59.864Z,2.00
2018-06-20T13:29:28.435Z,1.90
2018-06-20T13:32:02.414Z,1.83
2018-06-20T13:34:36.331Z,1.97
2018-06-20T13:37:10.350Z,2.00
2018-06-20T13:39:44.442Z,2.03
2018-06-20T13:42:19.802Z,1.80
2018-06-20T13:44:48.411Z,2.00
2018-06-20T13:47:22.441Z,1.90
2018-06-20T13:49:55.211Z,1.90
2018-06-20T13:52:23.786Z,2.00
2018-06-20T13:54:52.478Z,1.90
2018-06-20T13:57:21.121Z,2.30
2018-06-20T13:59:49.726Z,1.90
2018-06-20T14:02:18.295Z,1.90
2018-06-20T14:04:46.845Z,2.00
2018-06-20T14:07:21.265Z,2.10
2018-06-20T14:09:55.003Z,2.10
2018-06-20T14:12:23.563Z,2.40
2018-06-20T14:14:52.399Z,2.10
2018-06-20T14:17:20.958Z,2.13
2018-06-20T14:19:54.690Z,2.13
2018-06-20T14:22:23.255Z,2.00
2018-06-20T14:24:51.876Z,2.00
2018-06-20T14:27:20.562Z,1.93
2018-06-20T14:29:49.250Z,1.97
2018-06-20T14:32:23.289Z,2.13
2018-06-20T14:35:02.898Z,2.20
2018-06-20T14:37:36.730Z,1.90
2018-06-20T14:40:15.645Z,2.00
2018-06-20T14:42:49.604Z,1.97
2018-06-20T14:51:22.235Z,1.90
2018-06-20T14:53:51.326Z,1.97
2018-06-20T14:56:19.912Z,1.83
2018-06-20T14:58:49.581Z,1.70
2018-06-20T15:01:20.317Z,1.87
2018-06-20T15:03:49.987Z,1.97
2018-06-20T15:06:18.622Z,1.87
2018-06-20T15:09:05.507Z,1.90
2018-06-20T15:11:34.143Z,2.03
2018-06-20T15:14:02.776Z,1.80
2018-06-20T15:16:36.691Z,1.77
2018-06-20T15:19:05.461Z,1.90
2018-06-20T15:21:34.046Z,1.77
2018-06-20T15:24:02.826Z,2.00
2018-06-20T15:26:36.761Z,2.00
2018-06-20T15:29:10.830Z,2.10
2018-06-20T15:31:44.542Z,1.90
2018-06-20T15:34:18.247Z,2.00
2018-06-20T15:36:51.914Z,1.80
2018-06-20T15:39:20.369Z,2.20
2018-06-20T15:41:48.821Z,1.60
2018-06-20T15:44:17.253Z,1.80
2018-06-20T15:46:45.714Z,1.80
2018-06-20T15:49:14.170Z,1.60
2018-06-20T15:51:42.631Z,1.90
2018-06-20T15:54:11.069Z,1.83
2018-06-20T15:56:39.524Z,1.77
2018-06-20T15:59:07.964Z,2.00
2018-06-20T16:01:36.417Z,1.90
2018-06-20T16:04:04.930Z,1.70
2018-06-20T16:06:33.389Z,1.90
2018-06-20T16:10:08.004Z,1.80
2018-06-20T16:12:36.610Z,2.00
2018-06-20T16:15:05.358Z,1.83
2018-06-20T16:17:33.967Z,2.00
2018-06-20T16:20:07.900Z,2.00
2018-06-20T16:22:41.832Z,2.10
2018-06-20T16:25:15.722Z,2.00
2018-06-20T16:27:49.572Z,1.70
2018-06-20T16:30:23.546Z,1.73
2018-06-20T16:32:52.095Z,1.90
2018-06-20T16:35:20.726Z,1.80
2018-06-20T16:37:49.480Z,1.83
2018-06-20T16:40:18.111Z,1.80
2018-06-20T16:42:46.795Z,1.90
2018-06-20T16:45:15.358Z,1.90
2018-06-20T16:47:44.650Z,1.80
2018-06-20T16:50:13.263Z,1.90
2018-06-20T16:52:41.835Z,1.87
2018-06-20T16:55:20.874Z,2.00
2018-06-20T16:58:05.654Z,1.80
2018-06-20T17:00:34.333Z,2.13
2018-06-20T17:03:02.994Z,2.10
2018-06-20T17:05:31.656Z,2.53
2018-06-20T17:08:00.312Z,2.20
2018-06-20T17:10:28.937Z,2.30
2018-06-20T17:13:02.861Z,2.27
2018-06-20T17:15:36.602Z,2.33
2018-06-20T17:18:10.748Z,2.60
2018-06-20T17:20:50.559Z,2.40
2018-06-20T17:23:24.293Z,2.37
2018-06-20T17:25:52.930Z,2.10
2018-06-20T17:28:21.646Z,2.80
2018-06-20T17:30:50.321Z,2.30
2018-06-20T17:33:18.955Z,2.50
2018-06-20T17:35:47.603Z,2.40
2018-06-20T17:38:34.831Z,2.43
2018-06-20T17:41:03.510Z,2.53
2018-06-20T17:43:32.127Z,2.40
2018-06-20T17:46:00.749Z,2.50
2018-06-20T17:48:29.447Z,2.33
2018-06-20T17:50:58.124Z,2.53
2018-06-20T17:53:26.786Z,2.57
2018-06-20T17:55:55.510Z,2.60
2018-06-20T17:58:24.215Z,2.63
2018-06-20T18:00:58.211Z,3.70
2018-06-20T18:03:26.984Z,8.50
2018-06-20T18:06:00.983Z,4.93
2018-06-20T18:08:34.918Z,3.20
2018-06-20T18:11:10.661Z,3.33
2018-06-20T18:13:44.654Z,3.13
2018-06-20T18:16:18.728Z,2.93
2018-06-20T18:18:47.556Z,2.70
2018-06-20T18:21:16.328Z,2.70
2018-06-20T18:23:45.014Z,3.30
2018-06-20T18:26:13.672Z,2.80
2018-06-20T18:28:48.624Z,3.10
2018-06-20T18:31:17.264Z,2.70
2018-06-20T18:33:46.071Z,2.80
2018-06-20T18:36:14.857Z,2.93
2018-06-20T18:38:43.619Z,2.73
2018-06-20T18:41:12.412Z,2.93
2018-06-20T18:43:43.154Z,2.40
2018-06-20T18:46:11.846Z,3.10
2018-06-20T18:48:40.657Z,2.90
2018-06-20T18:51:09.481Z,3.00
2018-06-20T18:53:39.094Z,3.30
2018-06-20T18:56:07.883Z,3.17
2018-06-20T18:58:43.029Z,3.00
2018-06-20T19:01:19.151Z,2.90
2018-06-20T19:04:00.251Z,3.00
2018-06-20T19:06:46.194Z,2.90
2018-06-20T19:09:17.963Z,3.27
2018-06-20T19:11:59.002Z,2.90
2018-06-20T19:14:27.822Z,3.20
2018-06-20T19:16:56.470Z,3.33
2018-06-20T19:19:25.277Z,3.10
2018-06-20T19:21:54.016Z,4.53
2018-06-20T19:24:22.783Z,3.87
2018-06-20T19:26:51.587Z,3.93
2018-06-20T19:29:20.320Z,3.60
2018-06-20T19:31:49.038Z,2.97
2018-06-20T19:34:19.888Z,3.40
2018-06-20T19:36:48.774Z,3.37
2018-06-20T19:39:22.827Z,3.87
2018-06-20T19:41:51.652Z,3.70
2018-06-20T19:44:25.562Z,3.73
2018-06-20T19:46:54.308Z,3.70
2018-06-20T19:49:23.163Z,3.33
2018-06-20T19:51:51.575Z,3.30
2018-06-20T19:54:20.521Z,3.43
2018-06-20T19:57:02.154Z,3.30
2018-06-20T19:59:30.862Z,3.40
2018-06-20T20:01:59.583Z,3.73
2018-06-20T20:04:28.247Z,3.10
2018-06-20T20:06:56.916Z,3.23
2018-06-20T20:09:25.563Z,3.63
2018-06-20T20:11:54.318Z,3.47
2018-06-20T20:14:22.978Z,3.63
2018-06-20T20:16:51.663Z,3.60
2018-06-20T20:19:20.390Z,3.80
2018-06-20T20:21:49.010Z,4.80
2018-06-20T20:24:17.614Z,3.60
2018-06-20T20:26:56.907Z,3.40
2018-06-20T20:29:25.601Z,3.70
2018-06-20T20:31:54.297Z,3.60
2018-06-20T20:34:23.071Z,4.13
2018-06-20T20:36:51.803Z,4.17
2018-06-20T20:39:20.574Z,3.93
2018-06-20T20:41:49.246Z,3.63
2018-06-20T20:44:17.961Z,4.17
2018-06-20T20:46:46.619Z,3.93
2018-06-20T20:49:15.322Z,4.27
2018-06-20T20:51:44.017Z,4.20
2018-06-20T20:54:12.805Z,3.80
2018-06-20T20:56:41.690Z,4.33
2018-06-20T20:59:10.401Z,4.13
2018-06-20T21:01:39.115Z,4.00
2018-06-20T21:04:07.419Z,4.33
2018-06-20T21:06:36.059Z,4.23
2018-06-20T21:09:06.179Z,4.07
2018-06-20T21:11:34.901Z,3.90
2018-06-20T21:14:03.517Z,3.90
2018-06-20T21:16:32.167Z,3.97
2018-06-20T21:19:00.813Z,4.30
2018-06-20T21:21:30.134Z,4.13
2018-06-20T21:23:58.770Z,4.30
2018-06-20T21:26:27.387Z,3.93
2018-06-20T21:28:56.046Z,4.47
2018-06-20T21:31:24.823Z,4.40
2018-06-20T21:33:53.492Z,4.33
2018-06-20T21:36:22.852Z,4.00
2018-06-20T21:38:51.521Z,4.50
2018-06-20T21:41:20.197Z,4.27
2018-06-20T21:43:49.459Z,4.43
2018-06-20T21:46:18.122Z,4.17
2018-06-20T21:48:46.810Z,4.50
2018-06-20T21:51:15.479Z,4.37
2018-06-20T21:53:43.977Z,4.57
2018-06-20T21:56:12.755Z,4.40
2018-06-20T21:58:41.569Z,4.20
2018-06-20T22:01:10.254Z,4.60
2018-06-20T22:03:38.987Z,5.30
2018-06-20T22:06:08.747Z,4.17
2018-06-20T22:08:37.429Z,4.80
2018-06-20T22:11:06.127Z,4.50
2018-06-20T22:13:34.785Z,4.40
2018-06-20T22:16:03.547Z,4.57
2018-06-20T22:18:32.249Z,4.97
2018-06-20T22:21:00.955Z,4.57
2018-06-20T22:23:29.602Z,4.40
2018-06-20T22:25:58.369Z,4.80
2018-06-20T22:28:27.018Z,4.70
2018-06-20T22:30:55.658Z,5.17
2018-06-20T22:33:24.316Z,4.97
2018-06-20T22:35:53.119Z,5.53
2018-06-20T22:38:21.778Z,5.27
2018-06-20T22:40:50.503Z,5.50
2018-06-20T22:43:19.203Z,4.80
2018-06-20T22:45:47.855Z,5.87
2018-06-20T22:48:16.593Z,6.10
2018-06-20T22:50:45.216Z,5.60
2018-06-20T22:53:13.911Z,5.17
2018-06-20T22:55:42.526Z,5.90
2018-06-20T22:58:11.174Z,5.70
2018-06-20T23:00:39.894Z,5.90
2018-06-20T23:03:08.555Z,5.90
2018-06-20T23:05:37.185Z,5.60
2018-06-20T23:08:05.842Z,6.03
2018-06-20T23:10:34.608Z,6.50
2018-06-20T23:13:03.206Z,6.33
2018-06-20T23:15:31.862Z,5.43
2018-06-20T23:18:00.553Z,5.73
2018-06-20T23:20:29.292Z,5.50
2018-06-20T23:22:58.039Z,4.90
2018-06-20T23:25:26.715Z,5.07
2018-06-20T23:27:55.503Z,4.80
2018-06-20T23:30:24.256Z,5.30
2018-06-20T23:32:52.920Z,6.03
2018-06-20T23:35:21.628Z,5.23
2018-06-20T23:37:50.221Z,5.20
2018-06-20T23:40:18.859Z,5.33
2018-06-20T23:42:47.488Z,5.17
2018-06-20T23:45:16.275Z,5.13
2018-06-20T23:47:44.917Z,5.30
2018-06-20T23:50:13.614Z,5.20
2018-06-20T23:52:43.314Z,5.33
2018-06-20T23:55:12.011Z,5.47
2018-06-20T23:57:40.606Z,5.70
